Mont-Tremblant, Canada
Current Conditions -  °F | °C
As of 1:00 PM on Thursday 29 Jan 2015 (Local Time) from CYMX Reporting Station
Overcast Overcast  
Wind Chill:   Ceiling: 11000
Heat Index: 14°   Visibility: 25mi
Dew Point:   Wind: 6mph
Humidity: 53%   Direction: 50°NE
Pressure: 30.07"   Gusts: NA
Location:  46.12°N, 74.6°W
Report Text: CYMX 291800Z 05005KT 25SM BKN110 OVC200 M10/M18 A3007 RMK AC5CS3 SLP190
Loading
Personal Weather Stations






























Interactive Weather Map New forecast layout! Learn more

10-Day Weather Forecast

Advertisements
Track Severe Weather on mobile